Time,TemperatureF,DewpointF,PressureIn,WindDirection,WindDirectionDegrees,WindSpeedMPH,WindSpeedGustMPH,Humidity,HourlyPrecipIn,Conditions,Clouds,dailyrainin,SolarRadiationWatts/m^2,SoftwareType,DateUTC
2013-04-24 00:01:00,60.0,42.0,-100.00,SSE,152,5.0,12.0,51,0.00,,,0.00,0.000000,,2013-04-24 04:01:00,
2013-04-24 00:03:00,60.0,42.0,-100.00,SSE,152,5.0,12.0,51,0.00,,,0.00,0.000000,,2013-04-24 04:03:00,
2013-04-24 00:33:00,60.0,44.0,-100.00,SSE,152,6.0,11.0,55,0.00,,,0.00,0.000000,,2013-04-24 04:33:00,
2013-04-24 00:43:00,60.0,44.0,-100.00,SSE,152,6.0,11.0,55,0.00,,,0.00,0.000000,,2013-04-24 04:43:00,
2013-04-24 00:53:00,60.0,44.0,-100.00,SSE,152,6.0,11.0,55,0.00,,,0.00,0.000000,,2013-04-24 04:53:00,
2013-04-24 01:02:00,60.0,44.0,-100.00,SSE,152,6.0,11.0,55,0.00,,,0.00,0.000000,,2013-04-24 05:02:00,
2013-04-24 01:32:00,56.0,44.0,-100.00,SE,128,4.0,7.0,64,0.00,,,0.00,0.000000,,2013-04-24 05:32:00,
2013-04-24 01:42:00,56.0,44.0,-100.00,SE,128,4.0,7.0,64,0.00,,,0.00,0.000000,,2013-04-24 05:42:00,
2013-04-24 01:52:00,56.0,44.0,-100.00,SE,128,4.0,7.0,64,0.00,,,0.00,0.000000,,2013-04-24 05:52:00,
2013-04-24 02:02:00,56.0,44.0,-100.00,SE,128,4.0,7.0,64,0.00,,,0.00,0.000000,,2013-04-24 06:02:00,
2013-04-24 02:33:00,58.0,47.0,-100.00,SSE,151,5.0,7.0,66,0.00,,,0.00,0.000000,,2013-04-24 06:33:00,
2013-04-24 02:42:00,58.0,47.0,-100.00,SSE,151,5.0,7.0,66,0.00,,,0.00,0.000000,,2013-04-24 06:42:00,
2013-04-24 02:52:00,58.0,47.0,-100.00,SSE,151,5.0,7.0,66,0.00,,,0.00,0.000000,,2013-04-24 06:52:00,
2013-04-24 03:02:00,58.0,47.0,-100.00,SSE,151,5.0,7.0,66,0.00,,,0.00,0.000000,,2013-04-24 07:02:00,
2013-04-24 03:32:00,60.0,47.0,-100.00,SSE,160,5.0,10.0,62,0.00,,,0.00,0.000000,,2013-04-24 07:32:00,
2013-04-24 03:42:00,60.0,47.0,-100.00,SSE,160,5.0,10.0,62,0.00,,,0.00,0.000000,,2013-04-24 07:42:00,
2013-04-24 03:52:00,60.0,47.0,-100.00,SSE,160,5.0,10.0,62,0.00,,,0.00,0.000000,,2013-04-24 07:52:00,
2013-04-24 04:02:00,60.0,47.0,-100.00,SSE,160,5.0,10.0,62,0.00,,,0.00,0.000000,,2013-04-24 08:02:00,
2013-04-24 04:33:00,60.0,47.0,-100.00,SSE,157,6.0,9.0,62,0.00,,,0.00,0.000000,,2013-04-24 08:33:00,
2013-04-24 04:42:00,60.0,47.0,-100.00,SSE,157,6.0,9.0,62,0.00,,,0.00,0.000000,,2013-04-24 08:42:00,
2013-04-24 04:52:00,60.0,47.0,-100.00,SSE,157,6.0,9.0,62,0.00,,,0.00,0.000000,,2013-04-24 08:52:00,
2013-04-24 05:02:00,60.0,47.0,-100.00,SSE,157,6.0,9.0,62,0.00,,,0.00,0.000000,,2013-04-24 09:02:00,
2013-04-24 05:33:00,60.0,47.0,-100.00,SSE,159,9.0,15.0,63,0.00,,,0.00,0.000000,,2013-04-24 09:33:00,
2013-04-24 05:42:00,60.0,47.0,-100.00,SSE,159,9.0,15.0,63,0.00,,,0.00,0.000000,,2013-04-24 09:42:00,
2013-04-24 05:53:00,60.0,47.0,-100.00,SSE,159,9.0,15.0,63,0.00,,,0.00,0.000000,,2013-04-24 09:53:00,
2013-04-24 06:02:00,60.0,47.0,-100.00,SSE,159,9.0,15.0,63,0.00,,,0.00,0.000000,,2013-04-24 10:02:00,
2013-04-24 06:33:00,60.0,49.0,-100.00,SSE,165,8.0,17.0,66,0.00,,,0.00,0.000000,,2013-04-24 10:33:00,
2013-04-24 06:42:00,60.0,49.0,-100.00,SSE,165,8.0,17.0,66,0.00,,,0.00,0.000000,,2013-04-24 10:42:00,
2013-04-24 06:53:00,60.0,49.0,-100.00,SSE,165,8.0,17.0,66,0.00,,,0.00,0.000000,,2013-04-24 10:53:00,
2013-04-24 07:02:00,60.0,49.0,-100.00,SSE,165,8.0,17.0,66,0.00,,,0.00,0.000000,,2013-04-24 11:02:00,
2013-04-24 07:32:00,60.0,49.0,-100.00,South,171,10.0,16.0,68,0.00,,,0.00,3.000000,,2013-04-24 11:32:00,
2013-04-24 07:43:00,60.0,49.0,-100.00,South,171,10.0,16.0,68,0.00,,,0.00,3.000000,,2013-04-24 11:43:00,
2013-04-24 07:53:00,60.0,49.0,-100.00,South,171,10.0,16.0,68,0.00,,,0.00,3.000000,,2013-04-24 11:53:00,
2013-04-24 08:02:00,60.0,49.0,-100.00,South,171,10.0,16.0,68,0.00,,,0.00,3.000000,,2013-04-24 12:02:00,
2013-04-24 08:32:00,62.0,52.0,-100.00,SSE,161,9.0,15.0,69,0.00,,,-99.99,107.000000,,2013-04-24 12:32:00,
2013-04-24 08:42:00,62.0,52.0,-100.00,SSE,161,9.0,15.0,69,0.00,,,-99.99,107.000000,,2013-04-24 12:42:00,
2013-04-24 08:52:00,62.0,52.0,-100.00,SSE,161,9.0,15.0,69,0.00,,,-99.99,107.000000,,2013-04-24 12:52:00,
2013-04-24 09:01:00,62.0,52.0,-100.00,SSE,161,9.0,15.0,69,0.00,,,-99.99,107.000000,,2013-04-24 13:01:00,
2013-04-24 11:33:00,65.0,52.0,-100.00,SSW,200,17.0,31.0,62,-99.99,,,0.00,544.000000,,2013-04-24 15:33:00,
2013-04-24 11:43:00,65.0,52.0,-100.00,SSW,200,17.0,31.0,62,-99.99,,,0.00,544.000000,,2013-04-24 15:43:00,
2013-04-24 11:53:00,65.0,52.0,-100.00,SSW,200,17.0,31.0,62,-99.99,,,0.00,544.000000,,2013-04-24 15:53:00,
2013-04-24 12:03:00,65.0,52.0,-100.00,SSW,200,17.0,31.0,62,-99.99,,,0.00,544.000000,,2013-04-24 16:03:00,
2013-04-24 13:32:00,67.0,54.0,-100.00,SSW,198,15.0,25.0,62,-99.99,,,0.00,514.000000,,2013-04-24 17:32:00,
2013-04-24 13:42:00,67.0,54.0,-100.00,SSW,198,15.0,25.0,62,-99.99,,,0.00,514.000000,,2013-04-24 17:42:00,
2013-04-24 13:52:00,67.0,54.0,-100.00,SSW,198,15.0,25.0,62,-99.99,,,0.00,514.000000,,2013-04-24 17:52:00,
2013-04-24 14:02:00,67.0,54.0,-100.00,SSW,198,15.0,25.0,62,-99.99,,,0.00,514.000000,,2013-04-24 18:02:00,
2013-04-24 14:33:00,62.0,54.0,-100.00,SW,216,7.0,23.0,75,0.02,,,0.02,188.000000,,2013-04-24 18:33:00,
2013-04-24 14:43:00,62.0,54.0,-100.00,SW,216,7.0,23.0,75,0.02,,,0.02,188.000000,,2013-04-24 18:43:00,
2013-04-24 14:52:00,62.0,54.0,-100.00,SW,216,7.0,23.0,75,0.02,,,0.02,188.000000,,2013-04-24 18:52:00,
2013-04-24 15:02:00,62.0,54.0,-100.00,SW,216,7.0,23.0,75,0.02,,,0.02,188.000000,,2013-04-24 19:02:00,
2013-04-24 15:32:00,60.0,58.0,-100.00,SSW,200,10.0,17.0,93,0.12,,,0.14,56.000000,,2013-04-24 19:32:00,
2013-04-24 15:42:00,60.0,58.0,-100.00,SSW,200,10.0,17.0,93,0.12,,,0.14,56.000000,,2013-04-24 19:42:00,
2013-04-24 15:52:00,60.0,58.0,-100.00,SSW,200,10.0,17.0,93,0.12,,,0.14,56.000000,,2013-04-24 19:52:00,
2013-04-24 16:02:00,60.0,58.0,-100.00,SSW,200,10.0,17.0,93,0.12,,,0.14,56.000000,,2013-04-24 20:02:00,
2013-04-24 16:32:00,60.0,59.0,-100.00,SSW,205,8.0,20.0,96,0.05,,,0.19,103.000000,,2013-04-24 20:32:00,
2013-04-24 16:42:00,60.0,59.0,-100.00,SSW,205,8.0,20.0,96,0.05,,,0.19,103.000000,,2013-04-24 20:42:00,
2013-04-24 16:52:00,60.0,59.0,-100.00,SSW,205,8.0,20.0,96,0.05,,,0.19,103.000000,,2013-04-24 20:52:00,
2013-04-24 17:02:00,60.0,59.0,-100.00,SSW,205,8.0,20.0,96,0.05,,,0.19,103.000000,,2013-04-24 21:02:00,
2013-04-24 17:33:00,61.0,59.0,-100.00,SSW,202,13.0,19.0,93,0.00,,,0.19,236.000000,,2013-04-24 21:33:00,
2013-04-24 17:43:00,61.0,59.0,-100.00,SSW,202,13.0,19.0,93,0.00,,,0.19,236.000000,,2013-04-24 21:43:00,
2013-04-24 17:53:00,61.0,59.0,-100.00,SSW,202,13.0,19.0,93,0.00,,,0.19,236.000000,,2013-04-24 21:53:00,
2013-04-24 18:03:00,61.0,59.0,-100.00,SSW,202,13.0,19.0,93,0.00,,,0.19,236.000000,,2013-04-24 22:03:00,
2013-04-24 18:33:00,60.0,58.0,-100.00,SSW,207,9.0,17.0,92,0.00,,,0.19,92.000000,,2013-04-24 22:33:00,
2013-04-24 18:42:00,60.0,58.0,-100.00,SSW,207,9.0,17.0,92,0.00,,,0.19,92.000000,,2013-04-24 22:42:00,
2013-04-24 18:52:00,60.0,58.0,-100.00,SSW,207,9.0,17.0,92,0.00,,,0.19,92.000000,,2013-04-24 22:52:00,
2013-04-24 19:02:00,60.0,58.0,-100.00,SSW,207,9.0,17.0,92,0.00,,,0.19,92.000000,,2013-04-24 23:02:00,
2013-04-24 19:32:00,52.0,51.0,-100.00,NW,313,7.0,16.0,98,0.06,,,0.25,19.000000,,2013-04-24 23:32:00,
2013-04-24 19:42:00,52.0,51.0,-100.00,NW,313,7.0,16.0,98,0.06,,,0.25,19.000000,,2013-04-24 23:42:00,
2013-04-24 19:52:00,52.0,51.0,-100.00,NW,313,7.0,16.0,98,0.06,,,0.25,19.000000,,2013-04-24 23:52:00,
2013-04-24 20:02:00,52.0,51.0,-100.00,NW,313,7.0,16.0,98,0.06,,,0.25,19.000000,,2013-04-25 00:02:00,
2013-04-24 20:32:00,49.0,48.0,-100.00,NNW,340,10.0,20.0,98,0.03,,,-99.99,7.000000,,2013-04-25 00:32:00,
2013-04-24 20:42:00,49.0,48.0,-100.00,NNW,340,10.0,20.0,98,0.03,,,-99.99,7.000000,,2013-04-25 00:42:00,
2013-04-24 20:52:00,49.0,48.0,-100.00,NNW,340,10.0,20.0,98,0.03,,,-99.99,7.000000,,2013-04-25 00:52:00,
2013-04-24 21:02:00,49.0,48.0,-100.00,NNW,340,10.0,20.0,98,0.03,,,-99.99,7.000000,,2013-04-25 01:02:00,
2013-04-24 21:32:00,47.0,47.0,-100.00,North,357,5.0,16.0,99,0.03,,,0.31,0.000000,,2013-04-25 01:32:00,
2013-04-24 21:42:00,47.0,47.0,-100.00,North,357,5.0,16.0,99,0.03,,,0.31,0.000000,,2013-04-25 01:42:00,
2013-04-24 21:53:00,47.0,47.0,-100.00,North,357,5.0,16.0,99,0.03,,,0.31,0.000000,,2013-04-25 01:53:00,
2013-04-24 22:02:00,47.0,47.0,-100.00,North,357,5.0,16.0,99,0.03,,,0.31,0.000000,,2013-04-25 02:02:00,
2013-04-24 22:32:00,45.0,45.0,-100.00,North,359,5.0,15.0,99,0.02,,,0.33,0.000000,,2013-04-25 02:32:00,
2013-04-24 22:42:00,45.0,45.0,-100.00,North,359,5.0,15.0,99,0.02,,,0.33,0.000000,,2013-04-25 02:42:00,
2013-04-24 22:52:00,45.0,45.0,-100.00,North,359,5.0,15.0,99,0.02,,,0.33,0.000000,,2013-04-25 02:52:00,
2013-04-24 23:02:00,45.0,45.0,-100.00,North,359,5.0,15.0,99,0.02,,,0.33,0.000000,,2013-04-25 03:02:00,
2013-04-24 23:33:00,45.0,45.0,-100.00,NNW,341,6.0,12.0,99,0.00,,,0.33,0.000000,,2013-04-25 03:33:00,
2013-04-24 23:43:00,45.0,45.0,-100.00,NNW,341,6.0,12.0,99,0.00,,,0.33,0.000000,,2013-04-25 03:43:00,
2013-04-24 23:52:00,45.0,45.0,-100.00,NNW,341,6.0,12.0,99,0.00,,,0.33,0.000000,,2013-04-25 03:52:00,